sensor_id;sensor_type;location;lat;lon;timestamp;temperature;humidity
24426;DHT22;12611;44.446;26.000;2023-07-20T00:00:15;28.50;64.30
24426;DHT22;12611;44.446;26.000;2023-07-20T00:03:13;28.50;64.70
24426;DHT22;12611;44.446;26.000;2023-07-20T00:05:44;28.50;65.20
24426;DHT22;12611;44.446;26.000;2023-07-20T00:08:12;28.50;65.50
24426;DHT22;12611;44.446;26.000;2023-07-20T00:10:40;28.50;65.50
24426;DHT22;12611;44.446;26.000;2023-07-20T00:13:09;28.50;65.20
24426;DHT22;12611;44.446;26.000;2023-07-20T00:15:38;28.50;65.20
24426;DHT22;12611;44.446;26.000;2023-07-20T00:18:06;28.50;65.00
24426;DHT22;12611;44.446;26.000;2023-07-20T00:20:37;28.50;65.50
24426;DHT22;12611;44.446;26.000;2023-07-20T00:23:05;28.40;67.30
24426;DHT22;12611;44.446;26.000;2023-07-20T00:25:34;28.40;67.00
24426;DHT22;12611;44.446;26.000;2023-07-20T00:28:03;28.40;67.40
24426;DHT22;12611;44.446;26.000;2023-07-20T00:30:32;28.40;67.70
24426;DHT22;12611;44.446;26.000;2023-07-20T00:33:01;28.40;67.40
24426;DHT22;12611;44.446;26.000;2023-07-20T00:35:29;28.40;67.60
24426;DHT22;12611;44.446;26.000;2023-07-20T00:37:59;28.30;67.70
24426;DHT22;12611;44.446;26.000;2023-07-20T00:40:28;28.40;68.30
24426;DHT22;12611;44.446;26.000;2023-07-20T00:42:56;28.40;68.20
24426;DHT22;12611;44.446;26.000;2023-07-20T00:45:27;28.30;68.30
24426;DHT22;12611;44.446;26.000;2023-07-20T00:47:56;28.30;68.70
24426;DHT22;12611;44.446;26.000;2023-07-20T00:50:26;28.30;69.40
24426;DHT22;12611;44.446;26.000;2023-07-20T00:52:55;28.30;71.10
24426;DHT22;12611;44.446;26.000;2023-07-20T00:55:25;28.20;71.90
24426;DHT22;12611;44.446;26.000;2023-07-20T00:57:55;28.10;73.40
24426;DHT22;12611;44.446;26.000;2023-07-20T01:00:23;28.10;73.20
24426;DHT22;12611;44.446;26.000;2023-07-20T01:02:53;28.10;74.10
24426;DHT22;12611;44.446;26.000;2023-07-20T01:05:28;28.00;75.70
24426;DHT22;12611;44.446;26.000;2023-07-20T01:08:07;28.00;75.70
24426;DHT22;12611;44.446;26.000;2023-07-20T01:10:46;27.90;75.40
24426;DHT22;12611;44.446;26.000;2023-07-20T01:13:18;27.80;77.00
24426;DHT22;12611;44.446;26.000;2023-07-20T01:15:49;27.70;78.80
24426;DHT22;12611;44.446;26.000;2023-07-20T01:18:18;27.70;78.10
24426;DHT22;12611;44.446;26.000;2023-07-20T01:20:48;27.70;78.00
24426;DHT22;12611;44.446;26.000;2023-07-20T01:23:37;27.70;78.90
24426;DHT22;12611;44.446;26.000;2023-07-20T01:26:17;27.60;78.40
24426;DHT22;12611;44.446;26.000;2023-07-20T01:31:53;27.60;80.00
24426;DHT22;12611;44.446;26.000;2023-07-20T01:34:22;27.50;80.70
24426;DHT22;12611;44.446;26.000;2023-07-20T01:36:52;27.50;79.70
24426;DHT22;12611;44.446;26.000;2023-07-20T01:39:21;27.50;79.80
24426;DHT22;12611;44.446;26.000;2023-07-20T01:41:50;27.50;79.10
24426;DHT22;12611;44.446;26.000;2023-07-20T01:44:18;27.40;78.70
24426;DHT22;12611;44.446;26.000;2023-07-20T01:46:47;27.40;78.50
24426;DHT22;12611;44.446;26.000;2023-07-20T01:49:17;27.40;78.30
24426;DHT22;12611;44.446;26.000;2023-07-20T01:51:45;27.40;78.40
24426;DHT22;12611;44.446;26.000;2023-07-20T01:54:13;27.40;78.30
24426;DHT22;12611;44.446;26.000;2023-07-20T01:56:42;27.40;78.60
24426;DHT22;12611;44.446;26.000;2023-07-20T01:59:10;27.30;78.50
24426;DHT22;12611;44.446;26.000;2023-07-20T02:01:39;27.30;78.10
24426;DHT22;12611;44.446;26.000;2023-07-20T02:04:08;27.30;78.20
24426;DHT22;12611;44.446;26.000;2023-07-20T02:06:39;27.30;78.50
24426;DHT22;12611;44.446;26.000;2023-07-20T02:09:07;27.30;79.10
24426;DHT22;12611;44.446;26.000;2023-07-20T02:11:36;27.20;79.00
24426;DHT22;12611;44.446;26.000;2023-07-20T02:14:05;27.20;79.20
24426;DHT22;12611;44.446;26.000;2023-07-20T02:16:34;27.20;79.50
24426;DHT22;12611;44.446;26.000;2023-07-20T02:19:03;27.10;79.50
24426;DHT22;12611;44.446;26.000;2023-07-20T02:21:34;27.10;79.90
24426;DHT22;12611;44.446;26.000;2023-07-20T02:24:04;27.10;80.70
24426;DHT22;12611;44.446;26.000;2023-07-20T02:26:33;27.00;82.40
24426;DHT22;12611;44.446;26.000;2023-07-20T02:29:02;27.00;82.40
24426;DHT22;12611;44.446;26.000;2023-07-20T02:31:31;27.00;83.20
24426;DHT22;12611;44.446;26.000;2023-07-20T02:34:00;26.90;83.60
24426;DHT22;12611;44.446;26.000;2023-07-20T02:36:28;26.80;84.10
24426;DHT22;12611;44.446;26.000;2023-07-20T02:38:56;26.80;85.00
24426;DHT22;12611;44.446;26.000;2023-07-20T02:41:27;26.80;87.20
24426;DHT22;12611;44.446;26.000;2023-07-20T02:43:55;26.70;87.90
24426;DHT22;12611;44.446;26.000;2023-07-20T02:46:24;26.70;87.70
24426;DHT22;12611;44.446;26.000;2023-07-20T02:48:53;26.60;87.80
24426;DHT22;12611;44.446;26.000;2023-07-20T02:51:22;26.60;87.60
24426;DHT22;12611;44.446;26.000;2023-07-20T02:53:51;26.50;87.70
24426;DHT22;12611;44.446;26.000;2023-07-20T02:56:19;26.50;87.50
24426;DHT22;12611;44.446;26.000;2023-07-20T02:58:52;26.50;87.20
24426;DHT22;12611;44.446;26.000;2023-07-20T03:01:20;26.50;87.30
24426;DHT22;12611;44.446;26.000;2023-07-20T03:03:50;26.40;87.10
24426;DHT22;12611;44.446;26.000;2023-07-20T03:06:18;26.40;87.10
24426;DHT22;12611;44.446;26.000;2023-07-20T03:08:48;26.40;87.60
24426;DHT22;12611;44.446;26.000;2023-07-20T03:11:19;26.30;88.80
24426;DHT22;12611;44.446;26.000;2023-07-20T03:13:48;26.30;89.10
24426;DHT22;12611;44.446;26.000;2023-07-20T03:16:19;26.30;88.90
24426;DHT22;12611;44.446;26.000;2023-07-20T03:18:48;26.20;88.90
24426;DHT22;12611;44.446;26.000;2023-07-20T03:21:17;26.20;89.10
24426;DHT22;12611;44.446;26.000;2023-07-20T03:23:46;26.20;88.70
24426;DHT22;12611;44.446;26.000;2023-07-20T03:26:14;26.30;88.60
24426;DHT22;12611;44.446;26.000;2023-07-20T03:28:43;26.20;90.40
24426;DHT22;12611;44.446;26.000;2023-07-20T03:31:11;26.20;90.50
24426;DHT22;12611;44.446;26.000;2023-07-20T03:33:41;26.20;90.00
24426;DHT22;12611;44.446;26.000;2023-07-20T03:36:09;26.20;90.70
24426;DHT22;12611;44.446;26.000;2023-07-20T03:38:38;26.10;90.70
24426;DHT22;12611;44.446;26.000;2023-07-20T03:41:06;26.10;90.50
24426;DHT22;12611;44.446;26.000;2023-07-20T03:43:35;26.10;90.20
24426;DHT22;12611;44.446;26.000;2023-07-20T03:46:03;26.10;90.30
24426;DHT22;12611;44.446;26.000;2023-07-20T03:48:34;26.10;90.40
24426;DHT22;12611;44.446;26.000;2023-07-20T03:51:05;26.20;90.20
24426;DHT22;12611;44.446;26.000;2023-07-20T03:53:34;26.20;89.70
24426;DHT22;12611;44.446;26.000;2023-07-20T03:56:03;26.20;89.90
24426;DHT22;12611;44.446;26.000;2023-07-20T03:58:32;26.20;90.20
24426;DHT22;12611;44.446;26.000;2023-07-20T04:01:00;26.20;90.20
24426;DHT22;12611;44.446;26.000;2023-07-20T04:03:29;26.20;90.10
24426;DHT22;12611;44.446;26.000;2023-07-20T04:05:57;26.20;90.00
24426;DHT22;12611;44.446;26.000;2023-07-20T04:08:27;26.30;90.20
24426;DHT22;12611;44.446;26.000;2023-07-20T04:10:56;26.20;90.00
24426;DHT22;12611;44.446;26.000;2023-07-20T04:13:24;26.30;90.20
24426;DHT22;12611;44.446;26.000;2023-07-20T04:15:53;26.30;90.00
24426;DHT22;12611;44.446;26.000;2023-07-20T04:18:21;26.30;90.00
24426;DHT22;12611;44.446;26.000;2023-07-20T04:20:50;26.40;89.80
24426;DHT22;12611;44.446;26.000;2023-07-20T04:23:18;26.40;89.70
24426;DHT22;12611;44.446;26.000;2023-07-20T04:25:48;26.30;89.60
24426;DHT22;12611;44.446;26.000;2023-07-20T04:28:17;26.40;89.50
24426;DHT22;12611;44.446;26.000;2023-07-20T04:30:49;26.40;89.40
24426;DHT22;12611;44.446;26.000;2023-07-20T04:33:17;26.40;89.10
24426;DHT22;12611;44.446;26.000;2023-07-20T04:35:50;26.40;88.90
24426;DHT22;12611;44.446;26.000;2023-07-20T04:38:19;26.40;88.60
24426;DHT22;12611;44.446;26.000;2023-07-20T04:40:50;26.40;88.50
24426;DHT22;12611;44.446;26.000;2023-07-20T04:43:19;26.40;88.10
24426;DHT22;12611;44.446;26.000;2023-07-20T04:45:48;26.50;88.00
24426;DHT22;12611;44.446;26.000;2023-07-20T04:48:17;26.50;87.80
24426;DHT22;12611;44.446;26.000;2023-07-20T04:50:46;26.50;87.70
24426;DHT22;12611;44.446;26.000;2023-07-20T04:53:15;26.60;87.40
24426;DHT22;12611;44.446;26.000;2023-07-20T04:55:48;26.60;87.30
24426;DHT22;12611;44.446;26.000;2023-07-20T04:58:21;26.60;87.90
24426;DHT22;12611;44.446;26.000;2023-07-20T05:00:50;26.60;87.40
24426;DHT22;12611;44.446;26.000;2023-07-20T05:03:19;26.60;87.30
24426;DHT22;12611;44.446;26.000;2023-07-20T05:05:48;26.70;87.20
24426;DHT22;12611;44.446;26.000;2023-07-20T05:08:16;26.70;86.80
24426;DHT22;12611;44.446;26.000;2023-07-20T05:10:45;26.70;86.90
24426;DHT22;12611;44.446;26.000;2023-07-20T05:13:13;26.70;87.00
24426;DHT22;12611;44.446;26.000;2023-07-20T05:15:43;26.70;86.60
24426;DHT22;12611;44.446;26.000;2023-07-20T05:18:12;26.70;86.30
24426;DHT22;12611;44.446;26.000;2023-07-20T05:20:40;26.70;86.30
24426;DHT22;12611;44.446;26.000;2023-07-20T05:23:12;26.70;86.20
24426;DHT22;12611;44.446;26.000;2023-07-20T05:25:41;26.70;86.20
24426;DHT22;12611;44.446;26.000;2023-07-20T05:28:10;26.70;86.30
24426;DHT22;12611;44.446;26.000;2023-07-20T05:30:40;26.70;86.00
24426;DHT22;12611;44.446;26.000;2023-07-20T05:33:10;26.70;85.70
24426;DHT22;12611;44.446;26.000;2023-07-20T05:35:38;26.70;86.00
24426;DHT22;12611;44.446;26.000;2023-07-20T05:38:06;26.80;85.80
24426;DHT22;12611;44.446;26.000;2023-07-20T05:40:37;26.80;85.70
24426;DHT22;12611;44.446;26.000;2023-07-20T05:43:05;26.80;85.80
24426;DHT22;12611;44.446;26.000;2023-07-20T05:45:34;26.80;85.80
24426;DHT22;12611;44.446;26.000;2023-07-20T05:48:04;26.70;85.70
24426;DHT22;12611;44.446;26.000;2023-07-20T05:50:34;26.80;85.90
24426;DHT22;12611;44.446;26.000;2023-07-20T05:53:03;26.80;85.60
24426;DHT22;12611;44.446;26.000;2023-07-20T05:55:32;26.90;85.30
24426;DHT22;12611;44.446;26.000;2023-07-20T05:58:00;27.00;85.80
24426;DHT22;12611;44.446;26.000;2023-07-20T06:00:28;27.00;85.80
24426;DHT22;12611;44.446;26.000;2023-07-20T06:02:57;27.00;85.90
24426;DHT22;12611;44.446;26.000;2023-07-20T06:05:25;26.90;86.10
24426;DHT22;12611;44.446;26.000;2023-07-20T06:07:56;27.00;86.00
24426;DHT22;12611;44.446;26.000;2023-07-20T06:10:27;27.10;86.10
24426;DHT22;12611;44.446;26.000;2023-07-20T06:12:55;27.20;86.10
24426;DHT22;12611;44.446;26.000;2023-07-20T06:15:25;27.20;86.30
24426;DHT22;12611;44.446;26.000;2023-07-20T06:17:55;27.20;85.90
24426;DHT22;12611;44.446;26.000;2023-07-20T06:20:27;27.30;85.80
24426;DHT22;12611;44.446;26.000;2023-07-20T06:22:58;27.30;85.50
24426;DHT22;12611;44.446;26.000;2023-07-20T06:25:27;27.40;85.00
24426;DHT22;12611;44.446;26.000;2023-07-20T06:27:56;27.40;84.60
24426;DHT22;12611;44.446;26.000;2023-07-20T06:30:27;27.40;84.40
24426;DHT22;12611;44.446;26.000;2023-07-20T06:32:56;27.50;84.20
24426;DHT22;12611;44.446;26.000;2023-07-20T06:35:24;27.50;84.10
24426;DHT22;12611;44.446;26.000;2023-07-20T06:37:53;27.50;84.50
24426;DHT22;12611;44.446;26.000;2023-07-20T06:40:23;27.50;84.40
24426;DHT22;12611;44.446;26.000;2023-07-20T06:42:54;27.50;84.60
24426;DHT22;12611;44.446;26.000;2023-07-20T06:45:26;27.60;84.40
24426;DHT22;12611;44.446;26.000;2023-07-20T06:47:54;27.60;84.10
24426;DHT22;12611;44.446;26.000;2023-07-20T06:50:23;27.70;84.20
24426;DHT22;12611;44.446;26.000;2023-07-20T06:52:54;27.70;84.00
24426;DHT22;12611;44.446;26.000;2023-07-20T06:55:26;27.70;84.10
24426;DHT22;12611;44.446;26.000;2023-07-20T06:57:56;27.80;83.80
24426;DHT22;12611;44.446;26.000;2023-07-20T07:00:25;27.80;83.80
24426;DHT22;12611;44.446;26.000;2023-07-20T07:02:54;27.90;83.60
24426;DHT22;12611;44.446;26.000;2023-07-20T07:05:22;27.90;83.40
24426;DHT22;12611;44.446;26.000;2023-07-20T07:08:00;27.90;83.30
24426;DHT22;12611;44.446;26.000;2023-07-20T07:10:30;27.90;83.00
24426;DHT22;12611;44.446;26.000;2023-07-20T07:12:58;28.00;82.60
24426;DHT22;12611;44.446;26.000;2023-07-20T07:15:27;27.90;82.70
24426;DHT22;12611;44.446;26.000;2023-07-20T07:17:55;27.90;82.30
24426;DHT22;12611;44.446;26.000;2023-07-20T07:20:24;27.90;82.20
24426;DHT22;12611;44.446;26.000;2023-07-20T07:22:53;27.90;81.90
24426;DHT22;12611;44.446;26.000;2023-07-20T07:25:23;28.00;81.60
24426;DHT22;12611;44.446;26.000;2023-07-20T07:27:53;28.10;81.70
24426;DHT22;12611;44.446;26.000;2023-07-20T07:30:22;28.10;81.40
24426;DHT22;12611;44.446;26.000;2023-07-20T07:32:50;28.30;81.40
24426;DHT22;12611;44.446;26.000;2023-07-20T07:35:19;28.30;81.20
24426;DHT22;12611;44.446;26.000;2023-07-20T07:37:48;28.30;80.50
24426;DHT22;12611;44.446;26.000;2023-07-20T07:40:36;28.40;80.00
24426;DHT22;12611;44.446;26.000;2023-07-20T07:43:06;28.50;79.00
24426;DHT22;12611;44.446;26.000;2023-07-20T07:45:36;28.50;78.30
24426;DHT22;12611;44.446;26.000;2023-07-20T07:48:05;28.60;77.30
24426;DHT22;12611;44.446;26.000;2023-07-20T07:50:34;28.70;77.10
24426;DHT22;12611;44.446;26.000;2023-07-20T07:53:02;28.80;77.10
24426;DHT22;12611;44.446;26.000;2023-07-20T07:55:31;28.90;76.20
24426;DHT22;12611;44.446;26.000;2023-07-20T07:57:59;28.90;74.80
24426;DHT22;12611;44.446;26.000;2023-07-20T08:00:29;29.10;74.50
24426;DHT22;12611;44.446;26.000;2023-07-20T08:02:58;29.20;73.90
24426;DHT22;12611;44.446;26.000;2023-07-20T08:05:27;29.20;72.90
24426;DHT22;12611;44.446;26.000;2023-07-20T08:07:55;29.30;73.80
24426;DHT22;12611;44.446;26.000;2023-07-20T08:10:25;29.40;74.10
24426;DHT22;12611;44.446;26.000;2023-07-20T08:12:53;29.50;72.80
24426;DHT22;12611;44.446;26.000;2023-07-20T08:15:22;29.60;72.50
24426;DHT22;12611;44.446;26.000;2023-07-20T08:17:52;29.70;73.00
24426;DHT22;12611;44.446;26.000;2023-07-20T08:20:23;29.70;72.50
24426;DHT22;12611;44.446;26.000;2023-07-20T08:22:54;29.70;73.10
24426;DHT22;12611;44.446;26.000;2023-07-20T08:25:25;29.80;72.80
24426;DHT22;12611;44.446;26.000;2023-07-20T08:27:56;29.90;73.50
24426;DHT22;12611;44.446;26.000;2023-07-20T08:30:24;29.90;73.20
24426;DHT22;12611;44.446;26.000;2023-07-20T08:32:54;30.00;72.90
24426;DHT22;12611;44.446;26.000;2023-07-20T08:35:23;30.00;73.00
24426;DHT22;12611;44.446;26.000;2023-07-20T08:37:54;30.10;73.00
24426;DHT22;12611;44.446;26.000;2023-07-20T08:40:24;30.10;72.10
24426;DHT22;12611;44.446;26.000;2023-07-20T08:42:54;30.20;72.10
24426;DHT22;12611;44.446;26.000;2023-07-20T08:45:26;30.30;72.40
24426;DHT22;12611;44.446;26.000;2023-07-20T08:47:58;30.30;71.90
24426;DHT22;12611;44.446;26.000;2023-07-20T08:50:28;30.40;71.20
24426;DHT22;12611;44.446;26.000;2023-07-20T08:52:59;30.50;71.40
24426;DHT22;12611;44.446;26.000;2023-07-20T08:55:29;30.50;71.00
24426;DHT22;12611;44.446;26.000;2023-07-20T08:57:59;30.70;70.60
24426;DHT22;12611;44.446;26.000;2023-07-20T09:00:28;30.70;70.00
24426;DHT22;12611;44.446;26.000;2023-07-20T09:02:59;30.80;70.20
24426;DHT22;12611;44.446;26.000;2023-07-20T09:05:36;30.90;70.30
24426;DHT22;12611;44.446;26.000;2023-07-20T09:08:09;30.90;68.80
24426;DHT22;12611;44.446;26.000;2023-07-20T09:10:38;31.00;69.20
24426;DHT22;12611;44.446;26.000;2023-07-20T09:13:07;31.10;68.00
24426;DHT22;12611;44.446;26.000;2023-07-20T09:15:37;31.20;67.70
24426;DHT22;12611;44.446;26.000;2023-07-20T09:18:07;31.20;67.10
24426;DHT22;12611;44.446;26.000;2023-07-20T09:20:36;31.30;67.00
24426;DHT22;12611;44.446;26.000;2023-07-20T09:23:06;31.40;66.40
24426;DHT22;12611;44.446;26.000;2023-07-20T09:25:36;31.40;66.10
24426;DHT22;12611;44.446;26.000;2023-07-20T09:28:05;31.50;65.60
24426;DHT22;12611;44.446;26.000;2023-07-20T09:30:33;31.50;65.50
24426;DHT22;12611;44.446;26.000;2023-07-20T09:33:02;31.60;65.70
24426;DHT22;12611;44.446;26.000;2023-07-20T09:35:33;31.70;64.80
24426;DHT22;12611;44.446;26.000;2023-07-20T09:38:07;31.70;64.40
24426;DHT22;12611;44.446;26.000;2023-07-20T09:40:40;31.80;65.00
24426;DHT22;12611;44.446;26.000;2023-07-20T09:43:12;31.90;64.60
24426;DHT22;12611;44.446;26.000;2023-07-20T09:45:43;32.00;62.80
24426;DHT22;12611;44.446;26.000;2023-07-20T09:48:15;32.00;62.40
24426;DHT22;12611;44.446;26.000;2023-07-20T09:50:50;32.20;62.90
24426;DHT22;12611;44.446;26.000;2023-07-20T09:53:20;32.20;63.10
24426;DHT22;12611;44.446;26.000;2023-07-20T09:55:48;32.30;62.20
24426;DHT22;12611;44.446;26.000;2023-07-20T09:58:17;32.30;61.50
24426;DHT22;12611;44.446;26.000;2023-07-20T10:00:50;32.40;60.80
24426;DHT22;12611;44.446;26.000;2023-07-20T10:03:22;32.50;61.60
24426;DHT22;12611;44.446;26.000;2023-07-20T10:05:56;32.50;59.90
24426;DHT22;12611;44.446;26.000;2023-07-20T10:08:26;32.60;59.40
24426;DHT22;12611;44.446;26.000;2023-07-20T10:11:00;32.70;59.80
24426;DHT22;12611;44.446;26.000;2023-07-20T10:13:30;32.80;59.90
24426;DHT22;12611;44.446;26.000;2023-07-20T10:16:02;32.90;59.80
24426;DHT22;12611;44.446;26.000;2023-07-20T10:18:49;32.90;59.10
24426;DHT22;12611;44.446;26.000;2023-07-20T10:21:21;33.10;59.40
24426;DHT22;12611;44.446;26.000;2023-07-20T10:24:06;33.10;59.30
24426;DHT22;12611;44.446;26.000;2023-07-20T10:26:35;33.10;58.70
24426;DHT22;12611;44.446;26.000;2023-07-20T10:29:08;33.20;58.80
24426;DHT22;12611;44.446;26.000;2023-07-20T10:31:57;33.20;58.30
24426;DHT22;12611;44.446;26.000;2023-07-20T10:34:27;33.20;57.90
24426;DHT22;12611;44.446;26.000;2023-07-20T10:37:00;33.30;58.50
24426;DHT22;12611;44.446;26.000;2023-07-20T10:39:35;33.30;58.70
24426;DHT22;12611;44.446;26.000;2023-07-20T10:42:14;33.30;58.40
24426;DHT22;12611;44.446;26.000;2023-07-20T10:44:51;33.40;57.90
24426;DHT22;12611;44.446;26.000;2023-07-20T10:47:45;33.50;58.10
24426;DHT22;12611;44.446;26.000;2023-07-20T10:50:15;33.50;56.80
24426;DHT22;12611;44.446;26.000;2023-07-20T10:55:47;33.50;57.10
24426;DHT22;12611;44.446;26.000;2023-07-20T10:59:00;33.60;56.40
24426;DHT22;12611;44.446;26.000;2023-07-20T15:37:12;30.80;65.70
24426;DHT22;12611;44.446;26.000;2023-07-20T15:39:48;30.70;66.30
24426;DHT22;12611;44.446;26.000;2023-07-20T15:42:17;30.70;66.70
24426;DHT22;12611;44.446;26.000;2023-07-20T15:45:04;30.60;66.40
24426;DHT22;12611;44.446;26.000;2023-07-20T15:47:33;30.60;67.10
24426;DHT22;12611;44.446;26.000;2023-07-20T15:50:03;30.50;67.70
24426;DHT22;12611;44.446;26.000;2023-07-20T15:52:34;30.50;67.70
24426;DHT22;12611;44.446;26.000;2023-07-20T15:55:03;30.40;67.70
24426;DHT22;12611;44.446;26.000;2023-07-20T15:57:32;30.40;67.90
24426;DHT22;12611;44.446;26.000;2023-07-20T16:00:02;30.40;67.90
24426;DHT22;12611;44.446;26.000;2023-07-20T16:02:36;30.50;68.00
24426;DHT22;12611;44.446;26.000;2023-07-20T16:05:07;30.50;68.10
24426;DHT22;12611;44.446;26.000;2023-07-20T16:07:40;30.60;68.30
24426;DHT22;12611;44.446;26.000;2023-07-20T16:10:12;30.60;68.50
24426;DHT22;12611;44.446;26.000;2023-07-20T16:12:40;30.60;68.80
24426;DHT22;12611;44.446;26.000;2023-07-20T16:15:10;30.60;69.40
24426;DHT22;12611;44.446;26.000;2023-07-20T16:17:48;30.50;70.80
24426;DHT22;12611;44.446;26.000;2023-07-20T16:20:33;30.40;70.50
24426;DHT22;12611;44.446;26.000;2023-07-20T16:23:04;30.40;71.30
24426;DHT22;12611;44.446;26.000;2023-07-20T16:25:33;30.30;71.40
24426;DHT22;12611;44.446;26.000;2023-07-20T16:28:01;30.20;71.00
24426;DHT22;12611;44.446;26.000;2023-07-20T16:30:31;30.20;71.90
24426;DHT22;12611;44.446;26.000;2023-07-20T16:33:00;30.10;72.30
24426;DHT22;12611;44.446;26.000;2023-07-20T16:35:29;30.00;72.50
24426;DHT22;12611;44.446;26.000;2023-07-20T16:38:00;29.90;73.30
24426;DHT22;12611;44.446;26.000;2023-07-20T16:40:36;29.90;73.60
24426;DHT22;12611;44.446;26.000;2023-07-20T16:43:07;29.80;72.60
24426;DHT22;12611;44.446;26.000;2023-07-20T16:45:36;29.80;72.70
24426;DHT22;12611;44.446;26.000;2023-07-20T16:48:05;29.70;73.20
24426;DHT22;12611;44.446;26.000;2023-07-20T16:50:43;29.70;73.50
24426;DHT22;12611;44.446;26.000;2023-07-20T16:53:12;29.70;73.20
24426;DHT22;12611;44.446;26.000;2023-07-20T16:55:42;29.70;73.30
24426;DHT22;12611;44.446;26.000;2023-07-20T16:58:12;29.60;73.60
24426;DHT22;12611;44.446;26.000;2023-07-20T17:00:42;29.60;73.80
24426;DHT22;12611;44.446;26.000;2023-07-20T17:03:10;29.60;74.30
24426;DHT22;12611;44.446;26.000;2023-07-20T17:05:41;29.50;74.90
24426;DHT22;12611;44.446;26.000;2023-07-20T17:08:10;29.40;75.10
24426;DHT22;12611;44.446;26.000;2023-07-20T17:10:41;29.40;75.20
24426;DHT22;12611;44.446;26.000;2023-07-20T17:13:10;29.40;75.10
24426;DHT22;12611;44.446;26.000;2023-07-20T17:15:41;29.30;74.80
24426;DHT22;12611;44.446;26.000;2023-07-20T17:18:09;29.30;74.50
24426;DHT22;12611;44.446;26.000;2023-07-20T17:20:38;29.30;75.30
24426;DHT22;12611;44.446;26.000;2023-07-20T17:23:10;29.30;75.10
24426;DHT22;12611;44.446;26.000;2023-07-20T17:25:43;29.20;74.90
24426;DHT22;12611;44.446;26.000;2023-07-20T17:28:15;29.20;74.70
24426;DHT22;12611;44.446;26.000;2023-07-20T17:30:56;29.20;74.70
24426;DHT22;12611;44.446;26.000;2023-07-20T17:33:25;29.10;74.70
24426;DHT22;12611;44.446;26.000;2023-07-20T17:36:03;29.10;74.40
24426;DHT22;12611;44.446;26.000;2023-07-20T17:38:59;29.10;73.90
24426;DHT22;12611;44.446;26.000;2023-07-20T17:41:57;29.00;73.70
24426;DHT22;12611;44.446;26.000;2023-07-20T17:44:44;29.00;73.90
24426;DHT22;12611;44.446;26.000;2023-07-20T17:50:30;29.00;73.40
24426;DHT22;12611;44.446;26.000;2023-07-20T18:06:39;28.80;72.40
24426;DHT22;12611;44.446;26.000;2023-07-20T18:10:22;28.80;72.40
24426;DHT22;12611;44.446;26.000;2023-07-20T18:18:05;28.80;72.00
24426;DHT22;12611;44.446;26.000;2023-07-20T18:20:35;28.80;71.80
24426;DHT22;12611;44.446;26.000;2023-07-20T18:23:05;28.80;71.60
24426;DHT22;12611;44.446;26.000;2023-07-20T18:25:34;28.80;71.50
24426;DHT22;12611;44.446;26.000;2023-07-20T18:28:04;28.80;71.50
24426;DHT22;12611;44.446;26.000;2023-07-20T18:30:33;28.70;71.50
24426;DHT22;12611;44.446;26.000;2023-07-20T18:33:02;28.70;71.50
24426;DHT22;12611;44.446;26.000;2023-07-20T18:35:37;28.80;71.40
24426;DHT22;12611;44.446;26.000;2023-07-20T18:38:09;28.70;71.20
24426;DHT22;12611;44.446;26.000;2023-07-20T18:40:42;28.70;71.10
24426;DHT22;12611;44.446;26.000;2023-07-20T18:43:15;28.70;71.00
24426;DHT22;12611;44.446;26.000;2023-07-20T18:45:46;28.70;70.90
24426;DHT22;12611;44.446;26.000;2023-07-20T18:48:29;28.70;71.10
24426;DHT22;12611;44.446;26.000;2023-07-20T18:51:05;28.70;71.20
24426;DHT22;12611;44.446;26.000;2023-07-20T18:54:12;28.70;72.00
24426;DHT22;12611;44.446;26.000;2023-07-20T18:56:40;28.60;71.20
24426;DHT22;12611;44.446;26.000;2023-07-20T18:59:09;28.60;71.00
24426;DHT22;12611;44.446;26.000;2023-07-20T19:01:37;28.60;71.30
24426;DHT22;12611;44.446;26.000;2023-07-20T19:04:06;28.60;71.30
24426;DHT22;12611;44.446;26.000;2023-07-20T19:06:35;28.60;71.20
24426;DHT22;12611;44.446;26.000;2023-07-20T19:09:04;28.50;71.00
24426;DHT22;12611;44.446;26.000;2023-07-20T19:11:34;28.50;71.10
24426;DHT22;12611;44.446;26.000;2023-07-20T19:14:06;28.50;71.30
24426;DHT22;12611;44.446;26.000;2023-07-20T19:16:34;28.50;71.30
24426;DHT22;12611;44.446;26.000;2023-07-20T19:19:03;28.40;71.10
24426;DHT22;12611;44.446;26.000;2023-07-20T19:21:32;28.40;71.20
24426;DHT22;12611;44.446;26.000;2023-07-20T19:24:00;28.40;71.10
24426;DHT22;12611;44.446;26.000;2023-07-20T19:26:29;28.40;71.10
24426;DHT22;12611;44.446;26.000;2023-07-20T19:28:59;28.40;71.00
24426;DHT22;12611;44.446;26.000;2023-07-20T19:31:27;28.40;71.20
24426;DHT22;12611;44.446;26.000;2023-07-20T19:33:56;28.30;71.10
24426;DHT22;12611;44.446;26.000;2023-07-20T19:36:25;28.30;71.30
24426;DHT22;12611;44.446;26.000;2023-07-20T19:38:53;28.30;71.30
24426;DHT22;12611;44.446;26.000;2023-07-20T19:41:22;28.30;71.40
24426;DHT22;12611;44.446;26.000;2023-07-20T19:43:51;28.30;71.40
24426;DHT22;12611;44.446;26.000;2023-07-20T19:46:21;28.20;71.30
24426;DHT22;12611;44.446;26.000;2023-07-20T19:48:50;28.20;71.20
24426;DHT22;12611;44.446;26.000;2023-07-20T19:51:18;28.20;71.30
24426;DHT22;12611;44.446;26.000;2023-07-20T19:53:47;28.20;71.20
24426;DHT22;12611;44.446;26.000;2023-07-20T19:56:19;28.10;71.40
24426;DHT22;12611;44.446;26.000;2023-07-20T19:58:48;28.10;71.40
24426;DHT22;12611;44.446;26.000;2023-07-20T20:01:17;28.10;71.40
24426;DHT22;12611;44.446;26.000;2023-07-20T20:03:52;28.00;71.30
24426;DHT22;12611;44.446;26.000;2023-07-20T20:06:41;28.00;71.30
24426;DHT22;12611;44.446;26.000;2023-07-20T20:09:10;28.00;71.30
24426;DHT22;12611;44.446;26.000;2023-07-20T20:11:39;28.00;71.40
24426;DHT22;12611;44.446;26.000;2023-07-20T20:14:07;27.90;71.50
24426;DHT22;12611;44.446;26.000;2023-07-20T20:16:36;27.90;71.70
24426;DHT22;12611;44.446;26.000;2023-07-20T20:19:07;27.90;71.90
24426;DHT22;12611;44.446;26.000;2023-07-20T20:21:36;27.80;72.00
24426;DHT22;12611;44.446;26.000;2023-07-20T20:24:05;27.80;71.90
24426;DHT22;12611;44.446;26.000;2023-07-20T20:26:34;27.80;72.00
24426;DHT22;12611;44.446;26.000;2023-07-20T20:29:05;27.80;72.30
24426;DHT22;12611;44.446;26.000;2023-07-20T20:31:35;27.70;72.60
24426;DHT22;12611;44.446;26.000;2023-07-20T20:34:04;27.70;72.60
24426;DHT22;12611;44.446;26.000;2023-07-20T20:36:34;27.70;72.70
24426;DHT22;12611;44.446;26.000;2023-07-20T20:39:02;27.70;72.80
24426;DHT22;12611;44.446;26.000;2023-07-20T20:41:31;27.60;72.80